Terminal Aerodrome Forecast
Issued by NWS Shreveport, LA

Home | Current Version | Previous Version | Text Only | Print | Product List | Glossary On
Versions: 1 2 3 4 5 6 7 8 9 10 11 12 13
000
FTUS44 KSHV 290500
TAFSHV
TAF
KSHV 290528Z 2906/3006 18008KT P6SM SKC
     FM291000 21006KT P6SM SCT100
     FM291700 29010KT P6SM BKN250
     FM292200 34012KT P6SM BKN150=

USA.gov is the U.S. government's official web portal to all federal, state and local government web resources and services.